Terminal Aerodrome Forecast
Issued by NWS

Home | Current Version | Previous Version | Text Only | Print | Product List | Glossary On
Versions: 1 2 3 4 5 6 7 8 9 10 11 12 13 14 15 16 17
000
FTPQ31 PGUM 230801 AAB
TAFTKK
TAF AMD
PTKK 230801Z 2308/2406 05012KT P6SM VCSH SCT014 SCT040 BKN130
      TEMPO 2310/2314 4SM SHRA SCT014 BKN025 OVC080=

USA.gov is the U.S. government's official web portal to all federal, state and local government web resources and services.